sensor_id;sensor_type;location;lat;lon;timestamp;temperature;humidity
78184;DHT22;67442;44.570;18.610;2024-02-28T00:01:34;6.80;99.90
78184;DHT22;67442;44.570;18.610;2024-02-28T00:04:01;6.90;99.90
78184;DHT22;67442;44.570;18.610;2024-02-28T00:06:33;6.90;99.90
78184;DHT22;67442;44.570;18.610;2024-02-28T00:09:02;7.00;99.90
78184;DHT22;67442;44.570;18.610;2024-02-28T00:11:30;7.20;99.90
78184;DHT22;67442;44.570;18.610;2024-02-28T00:14:01;7.10;99.90
78184;DHT22;67442;44.570;18.610;2024-02-28T00:16:29;6.90;99.90
78184;DHT22;67442;44.570;18.610;2024-02-28T00:19:00;6.80;99.90
78184;DHT22;67442;44.570;18.610;2024-02-28T00:21:28;6.80;99.90
78184;DHT22;67442;44.570;18.610;2024-02-28T00:23:59;6.80;99.90
78184;DHT22;67442;44.570;18.610;2024-02-28T00:26:30;6.60;99.90
78184;DHT22;67442;44.570;18.610;2024-02-28T00:28:57;6.50;99.90
78184;DHT22;67442;44.570;18.610;2024-02-28T00:31:25;6.50;99.90
78184;DHT22;67442;44.570;18.610;2024-02-28T00:33:57;6.70;99.90
78184;DHT22;67442;44.570;18.610;2024-02-28T00:36:29;6.80;99.90
78184;DHT22;67442;44.570;18.610;2024-02-28T00:38:59;7.00;99.90
78184;DHT22;67442;44.570;18.610;2024-02-28T00:41:27;7.00;99.90
78184;DHT22;67442;44.570;18.610;2024-02-28T00:43:55;6.80;99.90
78184;DHT22;67442;44.570;18.610;2024-02-28T00:46:23;6.60;99.90
78184;DHT22;67442;44.570;18.610;2024-02-28T00:48:51;6.50;99.90
78184;DHT22;67442;44.570;18.610;2024-02-28T00:51:18;6.30;99.90
78184;DHT22;67442;44.570;18.610;2024-02-28T00:53:46;6.20;99.90
78184;DHT22;67442;44.570;18.610;2024-02-28T00:56:17;6.20;99.90
78184;DHT22;67442;44.570;18.610;2024-02-28T00:58:49;6.20;99.90
78184;DHT22;67442;44.570;18.610;2024-02-28T01:01:17;6.10;99.90
78184;DHT22;67442;44.570;18.610;2024-02-28T01:03:44;5.90;99.90
78184;DHT22;67442;44.570;18.610;2024-02-28T01:06:12;5.90;99.90
78184;DHT22;67442;44.570;18.610;2024-02-28T01:08:40;5.90;99.90
78184;DHT22;67442;44.570;18.610;2024-02-28T01:11:07;6.10;99.90
78184;DHT22;67442;44.570;18.610;2024-02-28T01:13:35;5.90;99.90
78184;DHT22;67442;44.570;18.610;2024-02-28T01:16:03;5.80;99.90
78184;DHT22;67442;44.570;18.610;2024-02-28T01:18:31;5.80;99.90
78184;DHT22;67442;44.570;18.610;2024-02-28T01:20:59;5.80;99.90
78184;DHT22;67442;44.570;18.610;2024-02-28T01:23:30;5.80;99.90
78184;DHT22;67442;44.570;18.610;2024-02-28T01:25:58;5.70;99.90
78184;DHT22;67442;44.570;18.610;2024-02-28T01:28:32;5.60;99.90
78184;DHT22;67442;44.570;18.610;2024-02-28T01:31:03;5.50;99.90
78184;DHT22;67442;44.570;18.610;2024-02-28T01:33:32;5.50;99.90
78184;DHT22;67442;44.570;18.610;2024-02-28T01:36:06;5.60;99.90
78184;DHT22;67442;44.570;18.610;2024-02-28T01:38:33;5.70;99.90
78184;DHT22;67442;44.570;18.610;2024-02-28T01:41:00;5.50;99.90
78184;DHT22;67442;44.570;18.610;2024-02-28T01:43:28;5.60;99.90
78184;DHT22;67442;44.570;18.610;2024-02-28T01:45:56;5.40;99.90
78184;DHT22;67442;44.570;18.610;2024-02-28T01:48:27;5.50;99.90
78184;DHT22;67442;44.570;18.610;2024-02-28T01:50:55;5.30;99.90
78184;DHT22;67442;44.570;18.610;2024-02-28T01:53:22;5.30;99.90
78184;DHT22;67442;44.570;18.610;2024-02-28T01:55:50;5.50;99.90
78184;DHT22;67442;44.570;18.610;2024-02-28T01:58:19;5.70;99.90
78184;DHT22;67442;44.570;18.610;2024-02-28T02:00:47;5.70;99.90
78184;DHT22;67442;44.570;18.610;2024-02-28T02:03:15;5.70;99.90
78184;DHT22;67442;44.570;18.610;2024-02-28T02:05:46;5.70;99.90
78184;DHT22;67442;44.570;18.610;2024-02-28T02:08:17;5.50;99.90
78184;DHT22;67442;44.570;18.610;2024-02-28T02:10:48;5.30;99.90
78184;DHT22;67442;44.570;18.610;2024-02-28T02:13:19;5.20;99.90
78184;DHT22;67442;44.570;18.610;2024-02-28T02:15:47;5.00;99.90
78184;DHT22;67442;44.570;18.610;2024-02-28T02:18:14;5.10;99.90
78184;DHT22;67442;44.570;18.610;2024-02-28T02:20:50;5.10;99.90
78184;DHT22;67442;44.570;18.610;2024-02-28T02:23:21;5.10;99.90
78184;DHT22;67442;44.570;18.610;2024-02-28T02:25:51;5.10;99.90
78184;DHT22;67442;44.570;18.610;2024-02-28T02:28:23;5.20;99.90
78184;DHT22;67442;44.570;18.610;2024-02-28T02:30:53;5.50;99.90
78184;DHT22;67442;44.570;18.610;2024-02-28T02:33:21;5.50;99.90
78184;DHT22;67442;44.570;18.610;2024-02-28T02:35:53;5.60;99.90
78184;DHT22;67442;44.570;18.610;2024-02-28T02:38:23;5.80;99.90
78184;DHT22;67442;44.570;18.610;2024-02-28T02:40:51;5.60;99.90
78184;DHT22;67442;44.570;18.610;2024-02-28T02:43:21;5.50;99.90
78184;DHT22;67442;44.570;18.610;2024-02-28T02:45:50;5.40;99.90
78184;DHT22;67442;44.570;18.610;2024-02-28T02:48:17;5.30;99.90
78184;DHT22;67442;44.570;18.610;2024-02-28T02:50:45;5.40;99.90
78184;DHT22;67442;44.570;18.610;2024-02-28T02:53:16;5.50;99.90
78184;DHT22;67442;44.570;18.610;2024-02-28T02:55:59;5.60;99.90
78184;DHT22;67442;44.570;18.610;2024-02-28T02:58:27;5.50;99.90
78184;DHT22;67442;44.570;18.610;2024-02-28T03:00:54;5.50;99.90
78184;DHT22;67442;44.570;18.610;2024-02-28T03:03:22;5.50;99.90
78184;DHT22;67442;44.570;18.610;2024-02-28T03:05:50;5.60;99.90
78184;DHT22;67442;44.570;18.610;2024-02-28T03:08:26;5.70;99.90
78184;DHT22;67442;44.570;18.610;2024-02-28T03:10:54;5.60;99.90
78184;DHT22;67442;44.570;18.610;2024-02-28T03:13:21;5.50;99.90
78184;DHT22;67442;44.570;18.610;2024-02-28T03:15:49;5.30;99.90
78184;DHT22;67442;44.570;18.610;2024-02-28T03:18:17;5.30;99.90
78184;DHT22;67442;44.570;18.610;2024-02-28T03:20:45;5.40;99.90
78184;DHT22;67442;44.570;18.610;2024-02-28T03:23:16;5.30;99.90
78184;DHT22;67442;44.570;18.610;2024-02-28T03:25:43;5.30;99.90
78184;DHT22;67442;44.570;18.610;2024-02-28T03:28:10;5.40;99.90
78184;DHT22;67442;44.570;18.610;2024-02-28T03:30:41;5.60;99.90
78184;DHT22;67442;44.570;18.610;2024-02-28T03:33:12;5.50;99.90
78184;DHT22;67442;44.570;18.610;2024-02-28T03:35:43;5.40;99.90
78184;DHT22;67442;44.570;18.610;2024-02-28T03:38:11;5.40;99.90
78184;DHT22;67442;44.570;18.610;2024-02-28T03:40:38;5.60;99.90
78184;DHT22;67442;44.570;18.610;2024-02-28T03:43:06;5.60;99.90
78184;DHT22;67442;44.570;18.610;2024-02-28T03:45:37;5.60;99.90
78184;DHT22;67442;44.570;18.610;2024-02-28T03:48:08;5.50;99.90
78184;DHT22;67442;44.570;18.610;2024-02-28T03:50:40;5.50;99.90
78184;DHT22;67442;44.570;18.610;2024-02-28T03:53:07;5.20;99.90
78184;DHT22;67442;44.570;18.610;2024-02-28T03:55:35;5.00;99.90
78184;DHT22;67442;44.570;18.610;2024-02-28T03:58:04;4.80;99.90
78184;DHT22;67442;44.570;18.610;2024-02-28T04:00:37;4.80;99.90
78184;DHT22;67442;44.570;18.610;2024-02-28T04:03:05;4.80;99.90
78184;DHT22;67442;44.570;18.610;2024-02-28T04:05:37;4.70;99.90
78184;DHT22;67442;44.570;18.610;2024-02-28T04:08:05;4.90;99.90
78184;DHT22;67442;44.570;18.610;2024-02-28T04:10:37;4.80;99.90
78184;DHT22;67442;44.570;18.610;2024-02-28T04:13:08;4.90;99.90
78184;DHT22;67442;44.570;18.610;2024-02-28T04:15:35;5.00;99.90
78184;DHT22;67442;44.570;18.610;2024-02-28T04:18:04;4.90;99.90
78184;DHT22;67442;44.570;18.610;2024-02-28T04:20:31;4.80;99.90
78184;DHT22;67442;44.570;18.610;2024-02-28T04:23:00;5.00;99.90
78184;DHT22;67442;44.570;18.610;2024-02-28T04:25:28;5.10;99.90
78184;DHT22;67442;44.570;18.610;2024-02-28T04:27:55;5.10;99.90
78184;DHT22;67442;44.570;18.610;2024-02-28T04:30:26;4.90;99.90
78184;DHT22;67442;44.570;18.610;2024-02-28T04:32:54;4.60;99.90
78184;DHT22;67442;44.570;18.610;2024-02-28T04:35:21;4.50;99.90
78184;DHT22;67442;44.570;18.610;2024-02-28T04:37:48;4.40;99.90
78184;DHT22;67442;44.570;18.610;2024-02-28T04:40:19;4.50;99.90
78184;DHT22;67442;44.570;18.610;2024-02-28T04:42:47;4.40;99.90
78184;DHT22;67442;44.570;18.610;2024-02-28T04:45:14;4.70;99.90
78184;DHT22;67442;44.570;18.610;2024-02-28T04:47:42;4.80;99.90
78184;DHT22;67442;44.570;18.610;2024-02-28T04:50:11;4.80;99.90
78184;DHT22;67442;44.570;18.610;2024-02-28T04:52:38;4.90;99.90
78184;DHT22;67442;44.570;18.610;2024-02-28T04:55:06;4.70;99.90
78184;DHT22;67442;44.570;18.610;2024-02-28T04:57:39;4.60;99.90
78184;DHT22;67442;44.570;18.610;2024-02-28T05:00:08;4.40;99.90
78184;DHT22;67442;44.570;18.610;2024-02-28T05:02:36;4.20;99.90
78184;DHT22;67442;44.570;18.610;2024-02-28T05:05:05;4.20;99.90
78184;DHT22;67442;44.570;18.610;2024-02-28T05:07:34;4.20;99.90
78184;DHT22;67442;44.570;18.610;2024-02-28T05:10:02;4.20;99.90
78184;DHT22;67442;44.570;18.610;2024-02-28T05:12:29;4.30;99.90
78184;DHT22;67442;44.570;18.610;2024-02-28T05:14:57;4.30;99.90
78184;DHT22;67442;44.570;18.610;2024-02-28T05:17:27;4.40;99.90
78184;DHT22;67442;44.570;18.610;2024-02-28T05:19:58;4.50;99.90
78184;DHT22;67442;44.570;18.610;2024-02-28T05:22:30;4.30;99.90
78184;DHT22;67442;44.570;18.610;2024-02-28T05:24:58;4.30;99.90
78184;DHT22;67442;44.570;18.610;2024-02-28T05:27:25;4.60;99.90
78184;DHT22;67442;44.570;18.610;2024-02-28T05:29:52;4.80;99.90
78184;DHT22;67442;44.570;18.610;2024-02-28T05:32:24;4.90;99.90
78184;DHT22;67442;44.570;18.610;2024-02-28T05:34:55;4.90;99.90
78184;DHT22;67442;44.570;18.610;2024-02-28T05:37:29;4.90;99.90
78184;DHT22;67442;44.570;18.610;2024-02-28T05:40:00;4.80;99.90
78184;DHT22;67442;44.570;18.610;2024-02-28T05:42:28;4.60;99.90
78184;DHT22;67442;44.570;18.610;2024-02-28T05:44:55;4.60;99.90
78184;DHT22;67442;44.570;18.610;2024-02-28T05:47:27;4.60;99.90
78184;DHT22;67442;44.570;18.610;2024-02-28T05:49:58;4.60;99.90
78184;DHT22;67442;44.570;18.610;2024-02-28T05:52:26;4.60;99.90
78184;DHT22;67442;44.570;18.610;2024-02-28T05:54:54;4.50;99.90
78184;DHT22;67442;44.570;18.610;2024-02-28T05:57:25;4.50;99.90
78184;DHT22;67442;44.570;18.610;2024-02-28T05:59:52;4.50;99.90
78184;DHT22;67442;44.570;18.610;2024-02-28T06:02:20;4.70;99.90
78184;DHT22;67442;44.570;18.610;2024-02-28T06:04:48;4.80;99.90
78184;DHT22;67442;44.570;18.610;2024-02-28T06:07:15;5.10;99.90
78184;DHT22;67442;44.570;18.610;2024-02-28T06:09:43;5.30;99.90
78184;DHT22;67442;44.570;18.610;2024-02-28T06:12:11;5.30;99.90
78184;DHT22;67442;44.570;18.610;2024-02-28T06:14:42;5.40;99.90
78184;DHT22;67442;44.570;18.610;2024-02-28T06:17:13;5.60;99.90
78184;DHT22;67442;44.570;18.610;2024-02-28T06:19:41;5.90;99.90
78184;DHT22;67442;44.570;18.610;2024-02-28T06:22:11;6.00;99.90
78184;DHT22;67442;44.570;18.610;2024-02-28T06:24:40;5.90;99.90
78184;DHT22;67442;44.570;18.610;2024-02-28T06:27:12;5.90;99.90
78184;DHT22;67442;44.570;18.610;2024-02-28T06:29:42;6.00;99.90
78184;DHT22;67442;44.570;18.610;2024-02-28T06:32:09;6.00;99.90
78184;DHT22;67442;44.570;18.610;2024-02-28T06:34:36;6.00;99.90
78184;DHT22;67442;44.570;18.610;2024-02-28T06:37:04;5.80;99.90
78184;DHT22;67442;44.570;18.610;2024-02-28T06:39:36;6.00;99.90
78184;DHT22;67442;44.570;18.610;2024-02-28T06:42:03;6.10;99.90
78184;DHT22;67442;44.570;18.610;2024-02-28T06:44:30;6.30;99.90
78184;DHT22;67442;44.570;18.610;2024-02-28T06:46:57;6.50;99.90
78184;DHT22;67442;44.570;18.610;2024-02-28T06:49:24;6.50;99.90
78184;DHT22;67442;44.570;18.610;2024-02-28T06:52:14;6.60;99.90
78184;DHT22;67442;44.570;18.610;2024-02-28T06:54:42;6.60;99.90
78184;DHT22;67442;44.570;18.610;2024-02-28T06:57:09;6.70;99.90
78184;DHT22;67442;44.570;18.610;2024-02-28T06:59:38;6.80;99.90
78184;DHT22;67442;44.570;18.610;2024-02-28T07:02:05;7.10;99.90
78184;DHT22;67442;44.570;18.610;2024-02-28T07:04:38;7.30;99.90
78184;DHT22;67442;44.570;18.610;2024-02-28T07:07:07;7.50;99.90
78184;DHT22;67442;44.570;18.610;2024-02-28T07:09:39;7.70;99.90
78184;DHT22;67442;44.570;18.610;2024-02-28T07:12:10;7.70;99.90
78184;DHT22;67442;44.570;18.610;2024-02-28T07:14:37;7.60;99.90
78184;DHT22;67442;44.570;18.610;2024-02-28T07:17:07;7.90;99.90
78184;DHT22;67442;44.570;18.610;2024-02-28T07:19:37;7.90;99.90
78184;DHT22;67442;44.570;18.610;2024-02-28T07:22:08;7.80;99.90
78184;DHT22;67442;44.570;18.610;2024-02-28T07:24:35;7.80;99.90
78184;DHT22;67442;44.570;18.610;2024-02-28T07:27:06;7.90;99.90
78184;DHT22;67442;44.570;18.610;2024-02-28T07:29:37;8.10;99.90
78184;DHT22;67442;44.570;18.610;2024-02-28T07:32:07;8.40;99.90
78184;DHT22;67442;44.570;18.610;2024-02-28T07:34:34;9.00;99.90
78184;DHT22;67442;44.570;18.610;2024-02-28T07:37:01;9.40;99.90
78184;DHT22;67442;44.570;18.610;2024-02-28T07:39:29;9.60;99.90
78184;DHT22;67442;44.570;18.610;2024-02-28T07:41:56;9.50;99.90
78184;DHT22;67442;44.570;18.610;2024-02-28T07:44:25;9.40;99.90
78184;DHT22;67442;44.570;18.610;2024-02-28T07:46:59;9.40;99.90
78184;DHT22;67442;44.570;18.610;2024-02-28T07:49:26;9.40;99.90
78184;DHT22;67442;44.570;18.610;2024-02-28T07:51:57;9.80;99.90
78184;DHT22;67442;44.570;18.610;2024-02-28T07:54:25;10.20;99.90
78184;DHT22;67442;44.570;18.610;2024-02-28T07:56:56;10.50;99.90
78184;DHT22;67442;44.570;18.610;2024-02-28T07:59:24;10.40;99.90
78184;DHT22;67442;44.570;18.610;2024-02-28T08:01:51;10.40;99.90
78184;DHT22;67442;44.570;18.610;2024-02-28T08:04:23;10.60;99.90
78184;DHT22;67442;44.570;18.610;2024-02-28T08:06:54;11.00;99.90
78184;DHT22;67442;44.570;18.610;2024-02-28T08:09:25;11.60;99.90
78184;DHT22;67442;44.570;18.610;2024-02-28T08:12:12;12.00;99.90
78184;DHT22;67442;44.570;18.610;2024-02-28T08:14:39;12.60;99.90
78184;DHT22;67442;44.570;18.610;2024-02-28T08:17:06;13.00;99.90
78184;DHT22;67442;44.570;18.610;2024-02-28T08:19:34;13.60;99.90
78184;DHT22;67442;44.570;18.610;2024-02-28T08:22:05;14.50;99.90
78184;DHT22;67442;44.570;18.610;2024-02-28T08:24:32;15.00;99.90
78184;DHT22;67442;44.570;18.610;2024-02-28T08:27:00;15.40;99.20
78184;DHT22;67442;44.570;18.610;2024-02-28T08:29:28;15.50;96.10
78184;DHT22;67442;44.570;18.610;2024-02-28T08:32:01;16.00;91.80
78184;DHT22;67442;44.570;18.610;2024-02-28T08:34:29;16.20;91.90
78184;DHT22;67442;44.570;18.610;2024-02-28T08:37:00;16.40;90.20
78184;DHT22;67442;44.570;18.610;2024-02-28T08:39:32;16.90;90.80
78184;DHT22;67442;44.570;18.610;2024-02-28T08:42:03;17.20;83.90
78184;DHT22;67442;44.570;18.610;2024-02-28T08:44:31;17.70;82.90
78184;DHT22;67442;44.570;18.610;2024-02-28T08:46:58;17.90;76.60
78184;DHT22;67442;44.570;18.610;2024-02-28T08:49:25;17.80;80.80
78184;DHT22;67442;44.570;18.610;2024-02-28T08:51:53;18.00;78.90
78184;DHT22;67442;44.570;18.610;2024-02-28T08:54:21;18.00;79.60
78184;DHT22;67442;44.570;18.610;2024-02-28T08:56:48;18.20;79.80
78184;DHT22;67442;44.570;18.610;2024-02-28T08:59:16;18.00;77.60
78184;DHT22;67442;44.570;18.610;2024-02-28T09:01:48;17.90;76.10
78184;DHT22;67442;44.570;18.610;2024-02-28T09:04:16;17.70;77.20
78184;DHT22;67442;44.570;18.610;2024-02-28T09:06:47;17.90;77.90
78184;DHT22;67442;44.570;18.610;2024-02-28T09:09:15;17.90;77.60
78184;DHT22;67442;44.570;18.610;2024-02-28T09:11:46;17.70;75.00
78184;DHT22;67442;44.570;18.610;2024-02-28T09:14:16;17.80;77.50
78184;DHT22;67442;44.570;18.610;2024-02-28T09:16:47;17.80;76.80
78184;DHT22;67442;44.570;18.610;2024-02-28T09:19:17;17.90;80.40
78184;DHT22;67442;44.570;18.610;2024-02-28T09:21:45;18.00;74.20
78184;DHT22;67442;44.570;18.610;2024-02-28T09:24:14;18.20;73.10
78184;DHT22;67442;44.570;18.610;2024-02-28T09:26:46;18.30;71.90
78184;DHT22;67442;44.570;18.610;2024-02-28T09:29:13;18.40;68.40
78184;DHT22;67442;44.570;18.610;2024-02-28T09:31:48;18.30;68.70
78184;DHT22;67442;44.570;18.610;2024-02-28T09:34:29;18.50;68.90
78184;DHT22;67442;44.570;18.610;2024-02-28T09:36:57;18.70;69.90
78184;DHT22;67442;44.570;18.610;2024-02-28T09:39:25;18.70;69.70
78184;DHT22;67442;44.570;18.610;2024-02-28T09:41:52;18.90;69.60
78184;DHT22;67442;44.570;18.610;2024-02-28T09:44:21;18.90;66.80
78184;DHT22;67442;44.570;18.610;2024-02-28T09:46:51;19.10;67.10
78184;DHT22;67442;44.570;18.610;2024-02-28T09:49:18;19.20;63.60
78184;DHT22;67442;44.570;18.610;2024-02-28T09:51:48;19.30;59.80
78184;DHT22;67442;44.570;18.610;2024-02-28T09:54:16;19.20;59.20
78184;DHT22;67442;44.570;18.610;2024-02-28T09:56:48;19.40;59.80
78184;DHT22;67442;44.570;18.610;2024-02-28T09:59:16;19.50;58.10
78184;DHT22;67442;44.570;18.610;2024-02-28T10:01:53;19.50;56.20
78184;DHT22;67442;44.570;18.610;2024-02-28T10:04:27;19.50;54.80
78184;DHT22;67442;44.570;18.610;2024-02-28T10:06:55;19.60;55.30
78184;DHT22;67442;44.570;18.610;2024-02-28T10:09:23;19.50;54.80
78184;DHT22;67442;44.570;18.610;2024-02-28T10:11:53;19.50;54.40
78184;DHT22;67442;44.570;18.610;2024-02-28T10:14:21;19.60;53.20
78184;DHT22;67442;44.570;18.610;2024-02-28T10:16:52;19.50;54.00
78184;DHT22;67442;44.570;18.610;2024-02-28T10:19:21;19.70;54.30
78184;DHT22;67442;44.570;18.610;2024-02-28T10:21:49;19.90;55.20
78184;DHT22;67442;44.570;18.610;2024-02-28T10:24:17;20.00;53.90
78184;DHT22;67442;44.570;18.610;2024-02-28T10:26:48;20.10;53.70
78184;DHT22;67442;44.570;18.610;2024-02-28T10:29:25;20.20;52.90
78184;DHT22;67442;44.570;18.610;2024-02-28T10:31:57;20.30;53.90
78184;DHT22;67442;44.570;18.610;2024-02-28T10:34:24;20.30;50.40
78184;DHT22;67442;44.570;18.610;2024-02-28T10:36:51;20.10;50.10
78184;DHT22;67442;44.570;18.610;2024-02-28T10:39:19;20.00;51.10
78184;DHT22;67442;44.570;18.610;2024-02-28T10:41:51;20.20;52.20
78184;DHT22;67442;44.570;18.610;2024-02-28T10:44:20;20.30;51.60
78184;DHT22;67442;44.570;18.610;2024-02-28T10:46:49;20.40;52.20
78184;DHT22;67442;44.570;18.610;2024-02-28T10:49:23;20.50;52.70
78184;DHT22;67442;44.570;18.610;2024-02-28T10:51:57;20.50;51.40
78184;DHT22;67442;44.570;18.610;2024-02-28T10:54:29;20.30;51.60
78184;DHT22;67442;44.570;18.610;2024-02-28T10:57:03;20.30;51.20
78184;DHT22;67442;44.570;18.610;2024-02-28T10:59:38;20.50;51.30
78184;DHT22;67442;44.570;18.610;2024-02-28T11:02:06;20.50;51.30
78184;DHT22;67442;44.570;18.610;2024-02-28T11:04:34;20.60;50.70
78184;DHT22;67442;44.570;18.610;2024-02-28T11:07:03;20.80;51.80
78184;DHT22;67442;44.570;18.610;2024-02-28T11:09:30;20.90;51.00
78184;DHT22;67442;44.570;18.610;2024-02-28T11:11:59;21.30;50.00
78184;DHT22;67442;44.570;18.610;2024-02-28T11:14:30;21.40;48.50
78184;DHT22;67442;44.570;18.610;2024-02-28T11:17:04;21.20;48.10
78184;DHT22;67442;44.570;18.610;2024-02-28T11:19:33;21.10;49.60
78184;DHT22;67442;44.570;18.610;2024-02-28T11:22:01;21.20;48.70
78184;DHT22;67442;44.570;18.610;2024-02-28T11:24:30;21.10;48.30
78184;DHT22;67442;44.570;18.610;2024-02-28T11:26:58;21.40;51.10
78184;DHT22;67442;44.570;18.610;2024-02-28T11:29:31;21.80;49.30
78184;DHT22;67442;44.570;18.610;2024-02-28T11:31:57;22.00;46.30
78184;DHT22;67442;44.570;18.610;2024-02-28T11:34:28;22.30;45.50
78184;DHT22;67442;44.570;18.610;2024-02-28T11:36:57;22.30;45.00
78184;DHT22;67442;44.570;18.610;2024-02-28T11:39:28;22.40;45.20
78184;DHT22;67442;44.570;18.610;2024-02-28T11:42:17;22.80;44.60
78184;DHT22;67442;44.570;18.610;2024-02-28T11:44:53;22.70;44.90
78184;DHT22;67442;44.570;18.610;2024-02-28T11:47:24;22.90;46.20
78184;DHT22;67442;44.570;18.610;2024-02-28T11:49:52;22.80;44.80
78184;DHT22;67442;44.570;18.610;2024-02-28T11:52:20;23.00;44.10
78184;DHT22;67442;44.570;18.610;2024-02-28T11:54:51;22.90;44.60
78184;DHT22;67442;44.570;18.610;2024-02-28T11:57:19;23.00;45.30
78184;DHT22;67442;44.570;18.610;2024-02-28T11:59:47;22.60;44.60
78184;DHT22;67442;44.570;18.610;2024-02-28T12:02:15;22.20;44.40
78184;DHT22;67442;44.570;18.610;2024-02-28T12:04:45;22.00;44.20
78184;DHT22;67442;44.570;18.610;2024-02-28T12:07:19;22.10;45.10
78184;DHT22;67442;44.570;18.610;2024-02-28T12:09:47;22.40;44.90
78184;DHT22;67442;44.570;18.610;2024-02-28T12:12:16;22.80;46.40
78184;DHT22;67442;44.570;18.610;2024-02-28T12:14:47;22.90;45.10
78184;DHT22;67442;44.570;18.610;2024-02-28T12:17:15;23.00;44.20
78184;DHT22;67442;44.570;18.610;2024-02-28T12:19:45;22.90;44.80
78184;DHT22;67442;44.570;18.610;2024-02-28T16:31:23;15.10;99.90
78184;DHT22;67442;44.570;18.610;2024-02-28T16:33:51;14.90;99.90
78184;DHT22;67442;44.570;18.610;2024-02-28T16:36:19;14.70;99.90
78184;DHT22;67442;44.570;18.610;2024-02-28T16:38:47;14.50;99.90
78184;DHT22;67442;44.570;18.610;2024-02-28T16:41:14;14.50;99.90
78184;DHT22;67442;44.570;18.610;2024-02-28T16:43:46;14.30;99.90
78184;DHT22;67442;44.570;18.610;2024-02-28T19:51:26;9.00;99.90
78184;DHT22;67442;44.570;18.610;2024-02-28T19:53:57;8.60;99.90
78184;DHT22;67442;44.570;18.610;2024-02-28T19:56:29;8.60;99.90
78184;DHT22;67442;44.570;18.610;2024-02-28T19:58:56;8.50;99.90
78184;DHT22;67442;44.570;18.610;2024-02-28T20:01:27;8.50;99.90
78184;DHT22;67442;44.570;18.610;2024-02-28T20:03:54;8.60;99.90
78184;DHT22;67442;44.570;18.610;2024-02-28T20:06:22;8.80;99.90
78184;DHT22;67442;44.570;18.610;2024-02-28T20:08:49;8.80;99.90
78184;DHT22;67442;44.570;18.610;2024-02-28T20:11:20;8.90;99.90
78184;DHT22;67442;44.570;18.610;2024-02-28T20:13:48;8.80;99.90
78184;DHT22;67442;44.570;18.610;2024-02-28T20:16:20;8.60;99.90
78184;DHT22;67442;44.570;18.610;2024-02-28T20:18:47;8.50;99.90
78184;DHT22;67442;44.570;18.610;2024-02-28T20:21:14;8.40;99.90
78184;DHT22;67442;44.570;18.610;2024-02-28T20:23:43;8.30;99.90
78184;DHT22;67442;44.570;18.610;2024-02-28T20:26:12;8.50;99.90
78184;DHT22;67442;44.570;18.610;2024-02-28T20:28:42;8.40;99.90
78184;DHT22;67442;44.570;18.610;2024-02-28T20:31:10;8.50;99.90
78184;DHT22;67442;44.570;18.610;2024-02-28T20:33:46;8.40;99.90
78184;DHT22;67442;44.570;18.610;2024-02-28T20:36:14;8.40;99.90
78184;DHT22;67442;44.570;18.610;2024-02-28T20:38:43;8.30;99.90
78184;DHT22;67442;44.570;18.610;2024-02-28T20:41:10;8.20;99.90
78184;DHT22;67442;44.570;18.610;2024-02-28T20:43:42;8.30;99.90
78184;DHT22;67442;44.570;18.610;2024-02-28T20:46:10;8.20;99.90
78184;DHT22;67442;44.570;18.610;2024-02-28T20:48:37;8.00;99.90
78184;DHT22;67442;44.570;18.610;2024-02-28T20:51:08;7.80;99.90
78184;DHT22;67442;44.570;18.610;2024-02-28T20:53:36;7.70;99.90
78184;DHT22;67442;44.570;18.610;2024-02-28T20:56:07;7.60;99.90
78184;DHT22;67442;44.570;18.610;2024-02-28T20:58:36;7.80;99.90
78184;DHT22;67442;44.570;18.610;2024-02-28T21:01:09;7.90;99.90
78184;DHT22;67442;44.570;18.610;2024-02-28T21:03:41;8.00;99.90
78184;DHT22;67442;44.570;18.610;2024-02-28T21:06:12;7.90;99.90
78184;DHT22;67442;44.570;18.610;2024-02-28T21:08:59;7.60;99.90
78184;DHT22;67442;44.570;18.610;2024-02-28T21:11:27;7.50;99.90
78184;DHT22;67442;44.570;18.610;2024-02-28T21:13:55;7.40;99.90
78184;DHT22;67442;44.570;18.610;2024-02-28T21:16:27;7.30;99.90
78184;DHT22;67442;44.570;18.610;2024-02-28T21:18:54;7.30;99.90
78184;DHT22;67442;44.570;18.610;2024-02-28T21:21:24;7.40;99.90
78184;DHT22;67442;44.570;18.610;2024-02-28T21:23:57;7.30;99.90
78184;DHT22;67442;44.570;18.610;2024-02-28T21:26:24;7.20;99.90
78184;DHT22;67442;44.570;18.610;2024-02-28T21:28:52;7.20;99.90
78184;DHT22;67442;44.570;18.610;2024-02-28T21:31:24;7.00;99.90
78184;DHT22;67442;44.570;18.610;2024-02-28T21:33:52;7.00;99.90
78184;DHT22;67442;44.570;18.610;2024-02-28T21:36:19;7.00;99.90
78184;DHT22;67442;44.570;18.610;2024-02-28T21:38:47;7.10;99.90
78184;DHT22;67442;44.570;18.610;2024-02-28T21:41:16;7.10;99.90
78184;DHT22;67442;44.570;18.610;2024-02-28T21:43:46;7.00;99.90
78184;DHT22;67442;44.570;18.610;2024-02-28T21:46:15;6.90;99.90
78184;DHT22;67442;44.570;18.610;2024-02-28T21:48:43;6.80;99.90
78184;DHT22;67442;44.570;18.610;2024-02-28T21:51:14;6.90;99.90
78184;DHT22;67442;44.570;18.610;2024-02-28T21:53:43;7.10;99.90
78184;DHT22;67442;44.570;18.610;2024-02-28T21:56:10;7.00;99.90
78184;DHT22;67442;44.570;18.610;2024-02-28T21:58:38;6.80;99.90
78184;DHT22;67442;44.570;18.610;2024-02-28T22:01:09;6.90;99.90
78184;DHT22;67442;44.570;18.610;2024-02-28T22:03:37;6.90;99.90
78184;DHT22;67442;44.570;18.610;2024-02-28T22:06:05;6.90;99.90
78184;DHT22;67442;44.570;18.610;2024-02-28T22:08:38;7.10;99.90
78184;DHT22;67442;44.570;18.610;2024-02-28T22:11:09;7.10;99.90
78184;DHT22;67442;44.570;18.610;2024-02-28T22:13:37;7.10;99.90
78184;DHT22;67442;44.570;18.610;2024-02-28T22:16:08;7.00;99.90
78184;DHT22;67442;44.570;18.610;2024-02-28T22:18:36;6.80;99.90
78184;DHT22;67442;44.570;18.610;2024-02-28T22:21:07;6.80;99.90
78184;DHT22;67442;44.570;18.610;2024-02-28T22:23:35;6.80;99.90
78184;DHT22;67442;44.570;18.610;2024-02-28T22:26:06;7.00;99.90
78184;DHT22;67442;44.570;18.610;2024-02-28T22:28:34;7.10;99.90
78184;DHT22;67442;44.570;18.610;2024-02-28T22:31:05;7.10;99.90
78184;DHT22;67442;44.570;18.610;2024-02-28T22:33:36;6.80;99.90
78184;DHT22;67442;44.570;18.610;2024-02-28T22:36:08;6.60;99.90
78184;DHT22;67442;44.570;18.610;2024-02-28T22:38:50;6.50;99.90
78184;DHT22;67442;44.570;18.610;2024-02-28T22:41:24;6.40;99.90
78184;DHT22;67442;44.570;18.610;2024-02-28T22:43:52;6.50;99.90
78184;DHT22;67442;44.570;18.610;2024-02-28T22:46:19;6.40;99.90
78184;DHT22;67442;44.570;18.610;2024-02-28T22:48:47;6.50;99.90
78184;DHT22;67442;44.570;18.610;2024-02-28T22:51:15;6.40;99.90
78184;DHT22;67442;44.570;18.610;2024-02-28T22:53:42;6.30;99.90
78184;DHT22;67442;44.570;18.610;2024-02-28T22:56:10;6.20;99.90